createdAt,value
2018-08-25T00:01:38.721Z,43.90
2018-08-25T00:04:07.630Z,43.50
2018-08-25T00:06:36.517Z,44.00
2018-08-25T00:09:07.979Z,43.70
2018-08-25T00:11:36.894Z,42.90
2018-08-25T00:14:05.986Z,42.60
2018-08-25T00:16:34.981Z,42.60
2018-08-25T00:19:03.906Z,42.70
2018-08-25T00:21:32.830Z,42.50
2018-08-25T00:24:01.739Z,42.50
2018-08-25T00:26:30.654Z,42.60
2018-08-25T00:28:59.542Z,42.60
2018-08-25T00:31:28.438Z,42.50
2018-08-25T00:33:57.346Z,42.60
2018-08-25T00:36:26.247Z,42.50
2018-08-25T00:38:55.282Z,42.80
2018-08-25T00:41:24.187Z,43.00
2018-08-25T00:43:53.178Z,42.90
2018-08-25T00:46:22.097Z,43.30
2018-08-25T00:48:51.086Z,43.10
2018-08-25T00:51:20.621Z,43.20
2018-08-25T00:53:49.547Z,43.20
2018-08-25T00:56:18.430Z,42.90
2018-08-25T00:58:47.319Z,43.10
2018-08-25T01:01:16.201Z,43.50
2018-08-25T01:03:45.118Z,43.50
2018-08-25T01:06:14.055Z,42.70
2018-08-25T01:08:43.071Z,43.30
2018-08-25T01:11:11.979Z,42.80
2018-08-25T01:13:40.866Z,42.80
2018-08-25T01:16:09.762Z,43.00
2018-08-25T01:18:38.643Z,43.00
2018-08-25T01:21:07.591Z,43.20
2018-08-25T01:23:36.475Z,43.50
2018-08-25T01:26:05.367Z,43.50
2018-08-25T01:28:34.266Z,43.20
2018-08-25T01:31:03.229Z,43.30
2018-08-25T01:33:32.123Z,43.40
2018-08-25T01:36:01.031Z,43.80
2018-08-25T01:38:29.982Z,44.20
2018-08-25T01:40:59.051Z,44.20
2018-08-25T01:43:27.976Z,44.50
2018-08-25T01:45:56.874Z,44.60
2018-08-25T01:48:25.819Z,44.90
2018-08-25T01:50:54.739Z,45.20
2018-08-25T01:53:23.694Z,45.40
2018-08-25T01:55:52.718Z,45.40
2018-08-25T01:58:21.646Z,45.30
2018-08-25T02:00:50.540Z,45.10
2018-08-25T02:03:19.450Z,45.30
2018-08-25T02:05:48.339Z,45.50
2018-08-25T02:08:17.230Z,45.90
2018-08-25T02:10:46.197Z,45.60
2018-08-25T02:13:15.063Z,45.60
2018-08-25T02:15:43.957Z,45.50
2018-08-25T02:18:12.842Z,45.50
2018-08-25T02:20:41.738Z,45.90
2018-08-25T02:23:10.617Z,45.70
2018-08-25T02:25:39.506Z,45.40
2018-08-25T02:28:08.375Z,45.40
2018-08-25T02:30:37.347Z,45.30
2018-08-25T02:33:06.390Z,45.50
2018-08-25T02:35:35.283Z,45.10
2018-08-25T02:38:04.176Z,45.30
2018-08-25T02:40:33.082Z,45.60
2018-08-25T02:43:01.962Z,46.10
2018-08-25T02:45:30.827Z,46.00
2018-08-25T02:47:59.726Z,45.60
2018-08-25T02:50:28.602Z,46.10
2018-08-25T02:52:57.480Z,46.30
2018-08-25T02:55:26.399Z,46.30
2018-08-25T02:57:55.297Z,46.20
2018-08-25T03:00:24.246Z,46.10
2018-08-25T03:02:53.354Z,46.70
2018-08-25T03:05:22.278Z,46.70
2018-08-25T03:07:51.253Z,46.40
2018-08-25T03:10:20.298Z,46.40
2018-08-25T03:12:49.235Z,46.40
2018-08-25T03:15:18.129Z,46.80
2018-08-25T03:17:47.015Z,46.70
2018-08-25T03:20:15.907Z,46.80
2018-08-25T03:22:44.843Z,46.70
2018-08-25T03:25:13.755Z,46.70
2018-08-25T03:27:42.656Z,46.60
2018-08-25T03:30:11.541Z,46.50
2018-08-25T03:32:40.410Z,46.50
2018-08-25T03:35:09.303Z,46.80
2018-08-25T03:37:38.176Z,46.30
2018-08-25T03:40:07.178Z,46.60
2018-08-25T03:42:36.062Z,46.40
2018-08-25T03:45:05.030Z,45.90
2018-08-25T03:47:33.918Z,46.50
2018-08-25T03:50:02.802Z,46.20
2018-08-25T03:52:31.682Z,46.10
2018-08-25T03:55:00.625Z,45.70
2018-08-25T03:57:29.510Z,46.10
2018-08-25T03:59:58.402Z,46.10
2018-08-25T04:02:27.306Z,46.00
2018-08-25T04:04:56.238Z,46.10
2018-08-25T04:07:25.137Z,46.40
2018-08-25T04:09:54.127Z,46.30
2018-08-25T04:12:23.074Z,46.20
2018-08-25T04:14:52.073Z,46.10
2018-08-25T04:17:20.913Z,46.10
2018-08-25T04:19:49.838Z,45.70
2018-08-25T04:22:18.756Z,45.90
2018-08-25T04:24:47.653Z,45.60
2018-08-25T04:27:17.646Z,45.10
2018-08-25T04:29:46.533Z,44.40
2018-08-25T04:32:15.426Z,44.20
2018-08-25T04:34:44.585Z,44.20
2018-08-25T04:37:13.455Z,43.50
2018-08-25T04:39:42.346Z,43.20
2018-08-25T04:42:11.222Z,43.10
2018-08-25T04:44:40.106Z,42.40
2018-08-25T04:47:08.982Z,42.60
2018-08-25T04:49:37.870Z,41.90
2018-08-25T04:52:06.878Z,42.10
2018-08-25T04:54:35.798Z,40.90
2018-08-25T04:57:04.906Z,40.40
2018-08-25T04:59:33.918Z,40.40
2018-08-25T05:02:02.841Z,40.20
2018-08-25T05:04:31.682Z,40.20
2018-08-25T05:07:00.730Z,40.20
2018-08-25T05:09:29.726Z,40.10
2018-08-25T05:11:58.586Z,40.10
2018-08-25T05:14:27.486Z,40.10
2018-08-25T05:16:56.419Z,40.20
2018-08-25T05:19:25.382Z,39.70
2018-08-25T05:21:54.339Z,39.90
2018-08-25T05:24:23.311Z,40.20
2018-08-25T05:26:52.305Z,40.10
2018-08-25T05:29:21.405Z,40.30
2018-08-25T05:31:51.521Z,39.90
2018-08-25T05:34:20.441Z,38.90
2018-08-25T05:36:49.365Z,39.00
2018-08-25T05:39:18.262Z,39.10
2018-08-25T05:41:48.038Z,39.60
2018-08-25T05:44:16.957Z,38.30
2018-08-25T05:46:45.811Z,38.60
2018-08-25T05:49:14.962Z,38.80
2018-08-25T05:51:43.882Z,37.70
2018-08-25T05:54:12.808Z,38.50
2018-08-25T05:56:41.742Z,38.20
2018-08-25T05:59:10.634Z,38.40
2018-08-25T06:01:39.531Z,38.70
2018-08-25T06:04:08.490Z,38.90
2018-08-25T06:06:37.573Z,39.40
2018-08-25T06:09:09.182Z,39.30
2018-08-25T06:11:38.092Z,38.60
2018-08-25T06:14:07.293Z,38.70
2018-08-25T06:16:36.410Z,39.10
2018-08-25T06:19:05.347Z,39.40
2018-08-25T06:21:34.231Z,39.20
2018-08-25T06:24:03.113Z,39.10
2018-08-25T06:26:32.003Z,38.90
2018-08-25T06:29:00.883Z,38.50
2018-08-25T06:31:29.942Z,38.50
2018-08-25T06:33:58.834Z,38.90
2018-08-25T06:36:27.772Z,38.10
2018-08-25T06:38:56.628Z,38.70
2018-08-25T06:41:25.623Z,38.90
2018-08-25T06:43:54.639Z,38.50
2018-08-25T06:46:23.550Z,37.40
2018-08-25T06:48:52.532Z,37.70
2018-08-25T06:51:21.426Z,37.80
2018-08-25T06:53:50.323Z,37.70
2018-08-25T06:56:19.226Z,37.40
2018-08-25T06:58:48.118Z,37.20
2018-08-25T07:01:17.037Z,37.90
2018-08-25T07:03:45.949Z,37.30
2018-08-25T07:06:14.840Z,37.10
2018-08-25T07:08:43.726Z,36.80
2018-08-25T07:11:12.625Z,36.30
2018-08-25T07:13:41.506Z,36.30
2018-08-25T07:16:10.473Z,35.10
2018-08-25T07:18:39.359Z,34.70
2018-08-25T07:21:08.230Z,34.60
2018-08-25T07:23:37.178Z,34.20
2018-08-25T07:26:06.140Z,33.30
2018-08-25T07:28:34.982Z,33.20
2018-08-25T07:31:03.856Z,32.50
2018-08-25T07:33:32.739Z,32.20
2018-08-25T07:36:01.623Z,32.30
2018-08-25T07:38:30.510Z,31.10
2018-08-25T07:40:59.402Z,31.50
2018-08-25T07:43:28.301Z,31.20
2018-08-25T07:45:57.194Z,30.10
2018-08-25T07:48:26.112Z,30.40
2018-08-25T07:50:55.051Z,30.30
2018-08-25T07:53:24.517Z,30.20
2018-08-25T07:55:53.535Z,30.30
2018-08-25T07:58:23.297Z,30.00
2018-08-25T08:00:52.258Z,29.30
2018-08-25T08:03:21.787Z,28.20
2018-08-25T08:05:50.739Z,28.60
2018-08-25T08:08:19.648Z,27.40
2018-08-25T08:10:48.590Z,26.80
2018-08-25T08:13:17.846Z,26.80
2018-08-25T08:15:46.727Z,26.60
2018-08-25T08:18:15.655Z,25.90
2018-08-25T08:20:44.619Z,26.50
2018-08-25T08:23:13.524Z,26.30
2018-08-25T08:25:42.394Z,26.60
2018-08-25T08:28:11.299Z,26.70
2018-08-25T08:30:40.264Z,26.60
2018-08-25T08:33:09.210Z,26.40
2018-08-25T08:35:38.190Z,27.20
2018-08-25T08:38:07.101Z,26.60
2018-08-25T08:40:36.406Z,26.90
2018-08-25T08:43:05.319Z,27.40
2018-08-25T08:45:34.411Z,26.30
2018-08-25T08:48:03.270Z,27.40
2018-08-25T08:50:32.304Z,27.00
2018-08-25T08:53:01.099Z,27.40
2018-08-25T08:55:30.131Z,27.20
2018-08-25T08:57:59.046Z,27.10
2018-08-25T09:00:27.930Z,26.90
2018-08-25T09:02:56.851Z,27.20
2018-08-25T09:05:25.823Z,26.40
2018-08-25T09:07:54.774Z,26.50
2018-08-25T09:10:23.715Z,26.40
2018-08-25T09:12:52.642Z,26.90
2018-08-25T09:15:21.678Z,27.40
2018-08-25T09:17:50.639Z,27.60
2018-08-25T09:20:19.515Z,27.60
2018-08-25T09:22:48.426Z,27.10
2018-08-25T09:25:17.313Z,27.70
2018-08-25T09:27:46.218Z,28.20
2018-08-25T09:30:15.150Z,29.50
2018-08-25T09:32:44.102Z,29.60
2018-08-25T09:35:13.079Z,31.90
2018-08-25T09:37:41.986Z,32.90
2018-08-25T09:40:10.866Z,34.20
2018-08-25T09:42:39.765Z,37.20
2018-08-25T09:45:08.766Z,36.80
2018-08-25T09:47:37.653Z,36.90
2018-08-25T09:50:07.497Z,39.10
2018-08-25T09:52:36.679Z,40.30
2018-08-25T09:55:06.555Z,37.50
2018-08-25T09:57:35.421Z,38.60
2018-08-25T10:00:04.722Z,39.70
2018-08-25T10:02:33.713Z,41.80
2018-08-25T10:05:02.762Z,41.70
2018-08-25T10:07:31.814Z,41.60
2018-08-25T10:10:00.711Z,38.50
2018-08-25T10:12:29.608Z,40.70
2018-08-25T10:14:58.497Z,41.40
2018-08-25T10:17:27.559Z,41.70
2018-08-25T10:19:56.482Z,40.90
2018-08-25T10:22:25.434Z,40.70
2018-08-25T10:24:54.370Z,40.00
2018-08-25T10:27:23.445Z,41.80
2018-08-25T10:29:52.527Z,38.10
2018-08-25T10:32:21.758Z,35.20
2018-08-25T10:34:50.742Z,36.20
2018-08-25T10:37:19.633Z,33.00
2018-08-25T10:39:48.532Z,33.20
2018-08-25T10:42:17.407Z,32.60
2018-08-25T10:44:46.312Z,33.10
2018-08-25T10:47:15.186Z,31.70
2018-08-25T10:49:44.074Z,32.10
2018-08-25T10:52:12.988Z,35.20
2018-08-25T10:54:42.794Z,32.30
2018-08-25T10:57:11.675Z,33.90
2018-08-25T10:59:40.565Z,33.50
2018-08-25T11:02:19.314Z,34.90
2018-08-25T11:04:48.199Z,33.50
2018-08-25T11:07:24.434Z,37.20
2018-08-25T11:09:54.114Z,35.80
2018-08-25T11:12:23.675Z,36.10
2018-08-25T11:14:52.733Z,36.00
2018-08-25T11:17:21.854Z,34.60
2018-08-25T11:19:50.823Z,34.30
2018-08-25T11:22:19.765Z,35.10
2018-08-25T11:24:48.710Z,35.80
2018-08-25T11:27:17.574Z,35.10
2018-08-25T11:29:48.166Z,36.50
2018-08-25T11:32:17.278Z,36.80
2018-08-25T11:34:46.326Z,38.60
2018-08-25T11:37:15.427Z,40.60
2018-08-25T11:39:44.746Z,41.40
2018-08-25T11:42:13.602Z,42.40
2018-08-25T11:44:42.542Z,44.00
2018-08-25T11:47:15.846Z,45.70
2018-08-25T11:49:46.130Z,49.20
2018-08-25T11:52:15.286Z,49.90
2018-08-25T11:54:44.678Z,50.90
2018-08-25T11:57:16.483Z,51.30
2018-08-25T11:59:45.459Z,51.20
2018-08-25T12:02:14.548Z,55.90
2018-08-25T12:04:45.401Z,54.20
2018-08-25T12:07:14.283Z,52.60
2018-08-25T12:09:43.195Z,54.20
2018-08-25T12:12:12.078Z,55.10
2018-08-25T12:14:40.974Z,50.20
2018-08-25T12:17:09.846Z,53.20
2018-08-25T12:19:38.737Z,49.30
2018-08-25T12:22:07.869Z,49.00
2018-08-25T12:24:36.851Z,49.50
2018-08-25T12:27:06.126Z,50.00
2018-08-25T12:29:35.029Z,50.80
2018-08-25T12:32:03.916Z,49.60
2018-08-25T12:34:32.839Z,49.40
2018-08-25T12:37:01.696Z,49.60
2018-08-25T12:39:30.610Z,48.40
2018-08-25T12:41:59.474Z,48.30
2018-08-25T12:44:28.398Z,49.20
2018-08-25T12:46:57.482Z,48.70
2018-08-25T12:49:26.415Z,47.40
2018-08-25T12:51:55.346Z,48.80
2018-08-25T12:54:24.450Z,46.00
2018-08-25T12:56:53.351Z,46.00
2018-08-25T12:59:22.374Z,46.10
2018-08-25T13:01:51.308Z,46.80
2018-08-25T13:04:20.582Z,44.30
2018-08-25T13:06:49.466Z,43.70
2018-08-25T13:09:18.553Z,43.90
2018-08-25T13:11:47.527Z,46.10
2018-08-25T13:14:16.534Z,44.20
2018-08-25T13:16:45.421Z,42.00
2018-08-25T13:19:14.318Z,42.20
2018-08-25T13:21:43.233Z,40.20
2018-08-25T13:24:12.175Z,40.50
2018-08-25T13:26:41.067Z,40.10
2018-08-25T13:29:10.077Z,41.90
2018-08-25T13:31:39.046Z,41.80
2018-08-25T13:34:07.948Z,42.40
2018-08-25T13:36:37.075Z,42.80
2018-08-25T13:39:08.310Z,43.10
2018-08-25T13:41:37.775Z,42.10
2018-08-25T13:44:07.136Z,41.40
2018-08-25T13:46:36.138Z,41.40
2018-08-25T13:49:05.208Z,41.20
2018-08-25T13:51:34.253Z,40.20
2018-08-25T13:54:03.278Z,40.30
2018-08-25T13:56:32.182Z,40.90
2018-08-25T13:59:01.167Z,40.80
2018-08-25T14:01:30.263Z,41.20
2018-08-25T14:03:59.678Z,42.50
2018-08-25T14:06:29.401Z,42.00
2018-08-25T14:08:58.958Z,42.00
2018-08-25T14:11:27.858Z,42.00
2018-08-25T14:13:56.837Z,41.30
2018-08-25T14:17:29.023Z,41.30
2018-08-25T14:19:58.120Z,41.10
2018-08-25T14:22:27.011Z,40.70
2018-08-25T14:24:56.122Z,40.60
2018-08-25T14:27:25.120Z,41.80
2018-08-25T14:29:54.302Z,41.90
2018-08-25T14:32:23.398Z,39.60
2018-08-25T14:34:52.534Z,39.40
2018-08-25T14:37:21.575Z,38.50
2018-08-25T14:39:50.579Z,39.80
2018-08-25T14:42:20.552Z,39.40
2018-08-25T14:44:49.874Z,39.70
2018-08-25T14:47:18.817Z,40.10
2018-08-25T14:49:47.895Z,39.70
2018-08-25T14:52:16.830Z,38.00
2018-08-25T14:54:45.868Z,38.40
2018-08-25T14:57:14.848Z,38.70
2018-08-25T14:59:43.830Z,39.40
2018-08-25T15:02:13.134Z,39.60
2018-08-25T15:04:42.454Z,38.90
2018-08-25T15:07:11.461Z,39.70
2018-08-25T15:09:40.481Z,38.70
2018-08-25T15:12:09.420Z,37.70
2018-08-25T15:14:38.375Z,36.10
2018-08-25T15:17:07.297Z,36.90
2018-08-25T15:19:36.449Z,35.80
2018-08-25T15:22:11.326Z,35.10
2018-08-25T15:24:42.436Z,35.40
2018-08-25T15:27:11.640Z,35.90
2018-08-25T15:29:40.555Z,35.20
2018-08-25T15:32:09.482Z,35.30
2018-08-25T15:34:38.522Z,34.30
2018-08-25T15:37:07.450Z,33.60
2018-08-25T15:39:36.489Z,33.70
2018-08-25T15:42:05.570Z,34.30
2018-08-25T15:44:34.465Z,32.90
2018-08-25T15:47:03.483Z,32.00
2018-08-25T15:49:32.467Z,33.80
2018-08-25T15:52:01.359Z,31.90
2018-08-25T15:54:30.262Z,33.80
2018-08-25T15:56:59.139Z,32.90
2018-08-25T15:59:28.153Z,33.20
2018-08-25T16:01:57.113Z,33.10
2018-08-25T16:04:26.178Z,33.70
2018-08-25T16:06:55.138Z,34.20
2018-08-25T16:09:24.106Z,34.80
2018-08-25T16:11:53.070Z,34.20
2018-08-25T16:14:21.962Z,31.70
2018-08-25T16:16:50.858Z,30.90
2018-08-25T16:19:20.133Z,29.40
2018-08-25T16:21:48.934Z,27.80
2018-08-25T16:24:17.842Z,27.00
2018-08-25T16:26:46.722Z,26.80
2018-08-25T16:29:15.687Z,27.00
2018-08-25T16:31:44.608Z,26.10
2018-08-25T16:34:13.612Z,24.10
2018-08-25T16:36:42.601Z,25.40
2018-08-25T16:39:11.502Z,25.50
2018-08-25T16:41:40.426Z,26.70
2018-08-25T16:44:09.568Z,26.50
2018-08-25T16:46:39.031Z,27.40
2018-08-25T16:49:08.072Z,27.00
2018-08-25T16:51:36.990Z,28.10
2018-08-25T16:54:06.066Z,28.70
2018-08-25T16:56:34.994Z,29.50
2018-08-25T16:59:04.064Z,29.70
2018-08-25T17:01:32.941Z,29.50
2018-08-25T17:04:01.846Z,29.40
2018-08-25T17:06:30.871Z,29.40
2018-08-25T17:08:59.771Z,30.50
2018-08-25T17:11:28.778Z,30.10
2018-08-25T17:13:57.694Z,30.30
2018-08-25T17:16:26.619Z,30.40
2018-08-25T17:18:55.682Z,30.70
2018-08-25T17:21:24.687Z,30.70
2018-08-25T17:23:53.806Z,32.10
2018-08-25T17:26:22.928Z,31.60
2018-08-25T17:28:51.938Z,32.20
2018-08-25T17:31:20.922Z,32.90
2018-08-25T17:33:49.874Z,32.80
2018-08-25T17:36:18.908Z,33.00
2018-08-25T17:38:47.963Z,33.10
2018-08-25T17:41:16.803Z,34.60
2018-08-25T17:43:45.750Z,34.10
2018-08-25T17:46:14.681Z,34.20
2018-08-25T17:48:43.891Z,34.70
2018-08-25T17:51:12.960Z,35.40
2018-08-25T17:53:41.863Z,37.70
2018-08-25T17:56:10.970Z,37.80
2018-08-25T17:58:39.901Z,38.40
2018-08-25T18:01:08.821Z,38.20
2018-08-25T18:03:37.725Z,37.80
2018-08-25T18:06:06.714Z,37.80
2018-08-25T18:08:35.646Z,37.50
2018-08-25T18:11:04.628Z,36.70
2018-08-25T18:13:33.637Z,38.40
2018-08-25T18:16:02.630Z,40.70
2018-08-25T18:18:31.588Z,40.00
2018-08-25T18:21:00.694Z,41.00
2018-08-25T18:23:29.665Z,40.90
2018-08-25T18:25:58.696Z,40.80
2018-08-25T18:28:27.580Z,39.40
2018-08-25T18:30:56.598Z,40.70
2018-08-25T18:33:25.593Z,39.20
2018-08-25T18:35:54.475Z,38.30
2018-08-25T18:38:24.280Z,39.40
2018-08-25T18:40:53.281Z,38.70
2018-08-25T18:43:22.369Z,38.70
2018-08-25T18:45:51.342Z,39.20
2018-08-25T18:48:20.381Z,40.50
2018-08-25T18:50:49.162Z,40.60
2018-08-25T18:53:18.206Z,41.50
2018-08-25T18:55:47.120Z,41.80
2018-08-25T18:58:15.989Z,41.80
2018-08-25T19:00:44.889Z,42.70
2018-08-25T19:03:13.790Z,43.00
2018-08-25T19:05:42.675Z,42.70
2018-08-25T19:08:11.573Z,43.80
2018-08-25T19:10:40.458Z,44.40
2018-08-25T19:13:09.331Z,44.40
2018-08-25T19:15:38.225Z,44.50
2018-08-25T19:18:07.190Z,44.30
2018-08-25T19:20:36.110Z,45.10
2018-08-25T19:23:05.018Z,44.80
2018-08-25T19:25:33.899Z,44.70
2018-08-25T19:28:02.782Z,45.80
2018-08-25T19:30:31.682Z,45.20
2018-08-25T19:33:00.576Z,45.30
2018-08-25T19:35:29.524Z,45.30
2018-08-25T19:37:58.375Z,45.60
2018-08-25T19:40:27.287Z,46.00
2018-08-25T19:42:56.206Z,46.00
2018-08-25T19:45:25.102Z,46.20
2018-08-25T19:47:54.073Z,46.40
2018-08-25T19:50:23.035Z,46.60
2018-08-25T19:52:52.058Z,47.00
2018-08-25T19:55:21.193Z,46.50
2018-08-25T19:57:50.081Z,46.40
2018-08-25T20:00:19.091Z,46.60
2018-08-25T20:02:47.922Z,46.80
2018-08-25T20:05:16.903Z,47.50
2018-08-25T20:07:52.434Z,48.00
2018-08-25T20:10:21.434Z,48.40
2018-08-25T20:12:50.371Z,48.30
2018-08-25T20:15:19.309Z,48.30
2018-08-25T20:17:48.202Z,48.30
2018-08-25T20:20:17.098Z,48.50
2018-08-25T20:22:45.974Z,49.40
2018-08-25T20:25:14.874Z,49.80
2018-08-25T20:27:43.867Z,50.20
2018-08-25T20:30:12.880Z,50.50
2018-08-25T20:32:41.762Z,51.40
2018-08-25T20:35:10.706Z,52.00
2018-08-25T20:37:39.616Z,52.50
2018-08-25T20:40:08.506Z,52.90
2018-08-25T20:42:37.391Z,53.40
2018-08-25T20:45:06.344Z,54.00
2018-08-25T20:47:35.253Z,54.90
2018-08-25T20:50:04.426Z,55.70
2018-08-25T20:52:33.311Z,56.30
2018-08-25T20:55:02.206Z,57.30
2018-08-25T20:57:31.123Z,58.60
2018-08-25T21:00:00.189Z,59.30
2018-08-25T21:02:29.165Z,60.00
2018-08-25T21:04:58.284Z,62.10
2018-08-25T21:07:27.214Z,61.40
2018-08-25T21:09:56.130Z,61.30
2018-08-25T21:12:25.138Z,61.40
2018-08-25T21:14:54.054Z,61.80
2018-08-25T21:17:23.021Z,61.60
2018-08-25T21:19:52.130Z,62.40
2018-08-25T21:22:21.050Z,62.70
2018-08-25T21:24:49.946Z,61.80
2018-08-25T21:27:18.918Z,63.20
2018-08-25T21:29:47.794Z,63.90
2018-08-25T21:32:16.802Z,64.30
2018-08-25T21:34:45.713Z,64.70
2018-08-25T21:37:14.610Z,64.90
2018-08-25T21:39:43.482Z,67.20
2018-08-25T21:42:12.358Z,68.00
2018-08-25T21:44:41.239Z,68.20
2018-08-25T21:47:10.113Z,70.20
2018-08-25T21:49:39.098Z,71.00
2018-08-25T21:52:07.982Z,70.60
2018-08-25T21:54:36.870Z,70.20
2018-08-25T21:57:05.782Z,69.60
2018-08-25T21:59:34.653Z,69.40
2018-08-25T22:02:03.549Z,69.00
2018-08-25T22:04:32.445Z,69.10
2018-08-25T22:07:01.342Z,70.00
2018-08-25T22:09:30.230Z,70.70
2018-08-25T22:11:59.131Z,69.60
2018-08-25T22:14:28.019Z,69.40
2018-08-25T22:16:56.962Z,68.60
2018-08-25T22:19:25.857Z,69.10
2018-08-25T22:21:54.843Z,70.10
2018-08-25T22:24:23.886Z,70.80
2018-08-25T22:26:52.784Z,71.70
2018-08-25T22:29:22.682Z,72.00
2018-08-25T22:31:51.586Z,71.40
2018-08-25T22:34:20.619Z,73.60
2018-08-25T22:36:49.517Z,76.30
2018-08-25T22:39:18.450Z,76.20
2018-08-25T22:41:47.442Z,77.10
2018-08-25T22:44:16.204Z,77.30
2018-08-25T22:46:45.081Z,76.90
2018-08-25T22:49:13.970Z,77.00
2018-08-25T22:51:42.866Z,77.80
2018-08-25T22:54:11.755Z,79.20
2018-08-25T22:56:40.632Z,79.20
2018-08-25T22:59:09.515Z,78.40
2018-08-25T23:01:38.393Z,78.20
2018-08-25T23:04:07.266Z,78.60
2018-08-25T23:06:36.194Z,78.90
2018-08-25T23:09:07.394Z,79.90
2018-08-25T23:11:36.459Z,80.80
2018-08-25T23:14:05.762Z,80.20
2018-08-25T23:16:34.655Z,79.90
2018-08-25T23:19:03.678Z,81.10
2018-08-25T23:21:32.556Z,81.30
2018-08-25T23:24:01.477Z,81.70
2018-08-25T23:26:30.386Z,82.30
2018-08-25T23:28:59.282Z,82.10
2018-08-25T23:31:28.245Z,81.70
2018-08-25T23:33:57.178Z,82.80
2018-08-25T23:36:26.098Z,82.80
2018-08-25T23:38:54.999Z,83.40
2018-08-25T23:41:23.942Z,82.80
2018-08-25T23:43:52.959Z,83.50
2018-08-25T23:46:21.927Z,83.90
2018-08-25T23:48:50.814Z,82.50
2018-08-25T23:51:19.739Z,82.40
2018-08-25T23:53:48.618Z,82.30
2018-08-25T23:56:17.498Z,81.60
2018-08-25T23:58:46.366Z,80.60
